Time,TemperatureF,DewpointF,PressureIn,WindDirection,WindDirectionDegrees,WindSpeedMPH,WindSpeedGustMPH,Humidity,HourlyPrecipIn,Conditions,Clouds,dailyrainin,SoftwareType,DateUTC
2013-06-04 00:02:00,56.0,44.0,-100.00,SSE,160,5.0,12.0,64,0.00,,,0.00,,2013-06-04 05:02:00,
2013-06-04 00:12:00,56.0,44.0,-100.00,SSE,160,5.0,12.0,64,0.00,,,0.00,,2013-06-04 05:12:00,
2013-06-04 00:22:00,56.0,44.0,-100.00,SSE,160,5.0,12.0,64,0.00,,,0.00,,2013-06-04 05:22:00,
2013-06-04 00:52:00,54.0,45.0,-100.00,SSE,152,4.0,7.0,72,0.00,,,0.00,,2013-06-04 05:52:00,
2013-06-04 01:02:00,54.0,45.0,-100.00,SSE,152,4.0,7.0,72,0.00,,,0.00,,2013-06-04 06:02:00,
2013-06-04 01:12:00,54.0,45.0,-100.00,SSE,152,4.0,7.0,72,0.00,,,0.00,,2013-06-04 06:12:00,
2013-06-04 01:22:00,54.0,45.0,-100.00,SSE,152,4.0,7.0,72,0.00,,,0.00,,2013-06-04 06:22:00,
2013-06-04 01:52:00,56.0,44.0,-100.00,South,170,5.0,7.0,64,0.00,,,0.00,,2013-06-04 06:52:00,
2013-06-04 02:02:00,56.0,44.0,-100.00,South,170,5.0,7.0,64,0.00,,,0.00,,2013-06-04 07:02:00,
2013-06-04 02:12:00,56.0,44.0,-100.00,South,170,5.0,7.0,64,0.00,,,0.00,,2013-06-04 07:12:00,
2013-06-04 02:22:00,56.0,44.0,-100.00,South,170,5.0,7.0,64,0.00,,,0.00,,2013-06-04 07:22:00,
2013-06-04 02:52:00,55.0,43.0,-100.00,SSE,157,4.0,8.0,65,0.00,,,0.00,,2013-06-04 07:52:00,
2013-06-04 03:02:00,55.0,43.0,-100.00,SSE,157,4.0,8.0,65,0.00,,,0.00,,2013-06-04 08:02:00,
2013-06-04 03:12:00,55.0,43.0,-100.00,SSE,157,4.0,8.0,65,0.00,,,0.00,,2013-06-04 08:12:00,
2013-06-04 03:22:00,55.0,43.0,-100.00,SSE,157,4.0,8.0,65,0.00,,,0.00,,2013-06-04 08:22:00,
2013-06-04 03:52:00,56.0,44.0,-100.00,South,172,6.0,10.0,65,0.00,,,0.00,,2013-06-04 08:52:00,
2013-06-04 04:02:00,56.0,44.0,-100.00,South,172,6.0,10.0,65,0.00,,,0.00,,2013-06-04 09:02:00,
2013-06-04 04:12:00,56.0,44.0,-100.00,South,172,6.0,10.0,65,0.00,,,0.00,,2013-06-04 09:12:00,
2013-06-04 04:22:00,56.0,44.0,-100.00,South,172,6.0,10.0,65,0.00,,,0.00,,2013-06-04 09:22:00,
2013-06-04 04:53:00,55.0,46.0,-100.00,South,173,4.0,9.0,72,0.00,,,0.00,,2013-06-04 09:53:00,
2013-06-04 05:02:00,55.0,46.0,-100.00,South,173,4.0,9.0,72,0.00,,,0.00,,2013-06-04 10:02:00,
2013-06-04 05:12:00,55.0,46.0,-100.00,South,173,4.0,9.0,72,0.00,,,0.00,,2013-06-04 10:12:00,
2013-06-04 05:23:00,55.0,46.0,-100.00,South,173,4.0,9.0,72,0.00,,,0.00,,2013-06-04 10:23:00,
2013-06-04 05:53:00,55.0,46.0,-100.00,SSE,155,5.0,7.0,71,0.00,,,0.00,,2013-06-04 10:53:00,
2013-06-04 06:02:00,55.0,46.0,-100.00,SSE,155,5.0,7.0,71,0.00,,,0.00,,2013-06-04 11:02:00,
2013-06-04 06:12:00,55.0,46.0,-100.00,SSE,155,5.0,7.0,71,0.00,,,0.00,,2013-06-04 11:12:00,
2013-06-04 06:22:00,55.0,46.0,-100.00,SSE,155,5.0,7.0,71,0.00,,,0.00,,2013-06-04 11:22:00,
2013-06-04 06:52:00,55.0,48.0,-100.00,NE,34,4.0,9.0,78,0.00,,,0.00,,2013-06-04 11:52:00,
2013-06-04 07:02:00,55.0,48.0,-100.00,NE,34,4.0,9.0,78,0.00,,,0.00,,2013-06-04 12:02:00,
2013-06-04 07:12:00,55.0,48.0,-100.00,NE,34,4.0,9.0,78,0.00,,,0.00,,2013-06-04 12:12:00,
2013-06-04 07:22:00,55.0,48.0,-100.00,NE,34,4.0,9.0,78,0.00,,,0.00,,2013-06-04 12:22:00,
2013-06-04 07:53:00,58.0,49.0,-100.00,East,96,6.0,11.0,72,0.00,,,0.00,,2013-06-04 12:53:00,
2013-06-04 08:02:00,58.0,49.0,-100.00,East,96,6.0,11.0,72,0.00,,,0.00,,2013-06-04 13:02:00,
2013-06-04 08:12:00,58.0,49.0,-100.00,East,96,6.0,11.0,72,0.00,,,0.00,,2013-06-04 13:12:00,
2013-06-04 08:22:00,58.0,49.0,-100.00,East,96,6.0,11.0,72,0.00,,,0.00,,2013-06-04 13:22:00,
2013-06-04 08:52:00,60.0,49.0,-100.00,SE,135,7.0,10.0,67,0.00,,,0.00,,2013-06-04 13:52:00,
2013-06-04 09:02:00,60.0,49.0,-100.00,SE,135,7.0,10.0,67,0.00,,,0.00,,2013-06-04 14:02:00,
2013-06-04 09:12:00,60.0,49.0,-100.00,SE,135,7.0,10.0,67,0.00,,,0.00,,2013-06-04 14:12:00,
2013-06-04 09:22:00,60.0,49.0,-100.00,SE,135,7.0,10.0,67,0.00,,,0.00,,2013-06-04 14:22:00,
2013-06-04 09:52:00,63.0,50.0,-100.00,SSE,159,5.0,9.0,63,0.00,,,0.00,,2013-06-04 14:52:00,
2013-06-04 10:02:00,63.0,50.0,-100.00,SSE,159,5.0,9.0,63,0.00,,,0.00,,2013-06-04 15:02:00,
2013-06-04 10:12:00,63.0,50.0,-100.00,SSE,159,5.0,9.0,63,0.00,,,0.00,,2013-06-04 15:12:00,
2013-06-04 10:22:00,63.0,50.0,-100.00,SSE,159,5.0,9.0,63,0.00,,,0.00,,2013-06-04 15:22:00,
2013-06-04 10:53:00,64.0,51.0,-100.00,SSW,194,4.0,9.0,62,0.00,,,0.00,,2013-06-04 15:53:00,
2013-06-04 11:03:00,64.0,51.0,-100.00,SSW,194,4.0,9.0,62,0.00,,,0.00,,2013-06-04 16:03:00,
2013-06-04 11:12:00,64.0,51.0,-100.00,SSW,194,4.0,9.0,62,0.00,,,0.00,,2013-06-04 16:12:00,
2013-06-04 11:22:00,64.0,51.0,-100.00,SSW,194,4.0,9.0,62,0.00,,,0.00,,2013-06-04 16:22:00,
2013-06-04 11:53:00,68.0,51.0,-100.00,South,186,4.0,7.0,54,0.00,,,0.00,,2013-06-04 16:53:00,
2013-06-04 12:03:00,68.0,51.0,-100.00,South,186,4.0,7.0,54,0.00,,,0.00,,2013-06-04 17:03:00,
2013-06-04 12:12:00,68.0,51.0,-100.00,South,186,4.0,7.0,54,0.00,,,0.00,,2013-06-04 17:12:00,
2013-06-04 12:23:00,68.0,51.0,-100.00,South,186,4.0,7.0,54,0.00,,,0.00,,2013-06-04 17:23:00,
2013-06-04 12:52:00,68.0,51.0,-100.00,SSE,163,2.0,7.0,54,0.00,,,0.00,,2013-06-04 17:52:00,
2013-06-04 13:02:00,68.0,51.0,-100.00,SSE,163,2.0,7.0,54,0.00,,,0.00,,2013-06-04 18:02:00,
2013-06-04 13:12:00,68.0,51.0,-100.00,SSE,163,2.0,7.0,54,0.00,,,0.00,,2013-06-04 18:12:00,
2013-06-04 13:22:00,68.0,51.0,-100.00,SSE,163,2.0,7.0,54,0.00,,,0.00,,2013-06-04 18:22:00,
2013-06-04 13:53:00,67.0,49.0,-100.00,South,187,2.0,5.0,53,0.00,,,0.00,,2013-06-04 18:53:00,
2013-06-04 14:02:00,67.0,49.0,-100.00,South,187,2.0,5.0,53,0.00,,,0.00,,2013-06-04 19:02:00,
2013-06-04 14:12:00,67.0,49.0,-100.00,South,187,2.0,5.0,53,0.00,,,0.00,,2013-06-04 19:12:00,
2013-06-04 14:22:00,67.0,49.0,-100.00,South,187,2.0,5.0,53,0.00,,,0.00,,2013-06-04 19:22:00,
2013-06-04 14:52:00,66.0,54.0,-100.00,ENE,60,12.0,16.0,66,0.00,,,0.00,,2013-06-04 19:52:00,
2013-06-04 15:03:00,66.0,54.0,-100.00,ENE,60,12.0,16.0,66,0.00,,,0.00,,2013-06-04 20:03:00,
2013-06-04 15:12:00,66.0,54.0,-100.00,ENE,60,12.0,16.0,66,0.00,,,0.00,,2013-06-04 20:12:00,
2013-06-04 15:22:00,66.0,54.0,-100.00,ENE,60,12.0,16.0,66,0.00,,,0.00,,2013-06-04 20:22:00,
2013-06-04 15:53:00,65.0,53.0,-100.00,ENE,73,13.0,18.0,64,0.00,,,0.00,,2013-06-04 20:53:00,
2013-06-04 16:02:00,65.0,53.0,-100.00,ENE,73,13.0,18.0,64,0.00,,,0.00,,2013-06-04 21:02:00,
2013-06-04 16:12:00,65.0,53.0,-100.00,ENE,73,13.0,18.0,64,0.00,,,0.00,,2013-06-04 21:12:00,
2013-06-04 16:22:00,65.0,53.0,-100.00,ENE,73,13.0,18.0,64,0.00,,,0.00,,2013-06-04 21:22:00,
2013-06-04 16:53:00,62.0,50.0,-100.00,East,87,13.0,19.0,64,0.00,,,0.00,,2013-06-04 21:53:00,
2013-06-04 17:02:00,62.0,50.0,-100.00,East,87,13.0,19.0,64,0.00,,,0.00,,2013-06-04 22:02:00,
2013-06-04 17:13:00,62.0,50.0,-100.00,East,87,13.0,19.0,64,0.00,,,0.00,,2013-06-04 22:13:00,
2013-06-04 17:22:00,62.0,50.0,-100.00,East,87,13.0,19.0,64,0.00,,,0.00,,2013-06-04 22:22:00,
2013-06-04 17:52:00,61.0,46.0,-100.00,East,94,13.0,21.0,57,0.00,,,0.00,,2013-06-04 22:52:00,
2013-06-04 18:02:00,61.0,46.0,-100.00,East,94,13.0,21.0,57,0.00,,,0.00,,2013-06-04 23:02:00,
2013-06-04 18:12:00,61.0,46.0,-100.00,East,94,13.0,21.0,57,0.00,,,0.00,,2013-06-04 23:12:00,
2013-06-04 18:22:00,61.0,46.0,-100.00,East,94,13.0,21.0,57,0.00,,,0.00,,2013-06-04 23:22:00,
2013-06-04 18:52:00,59.0,44.0,-100.00,ESE,102,9.0,23.0,58,0.00,,,0.00,,2013-06-04 23:52:00,
2013-06-04 19:02:00,59.0,44.0,-100.00,ESE,102,9.0,23.0,58,0.00,,,0.00,,2013-06-05 00:02:00,
2013-06-04 19:12:00,59.0,44.0,-100.00,ESE,102,9.0,23.0,58,0.00,,,0.00,,2013-06-05 00:12:00,
2013-06-04 19:22:00,59.0,44.0,-100.00,ESE,102,9.0,23.0,58,0.00,,,0.00,,2013-06-05 00:22:00,
2013-06-04 19:52:00,55.0,43.0,-100.00,East,89,7.0,19.0,64,0.00,,,0.00,,2013-06-05 00:52:00,
2013-06-04 20:02:00,55.0,43.0,-100.00,East,89,7.0,19.0,64,0.00,,,0.00,,2013-06-05 01:02:00,
2013-06-04 20:12:00,55.0,43.0,-100.00,East,89,7.0,19.0,64,0.00,,,0.00,,2013-06-05 01:12:00,
2013-06-04 20:22:00,55.0,43.0,-100.00,East,89,7.0,19.0,64,0.00,,,0.00,,2013-06-05 01:22:00,
2013-06-04 20:52:00,52.0,44.0,-100.00,East,99,8.0,15.0,75,0.01,,,0.01,,2013-06-05 01:52:00,
2013-06-04 21:02:00,52.0,44.0,-100.00,East,99,8.0,15.0,75,0.01,,,0.01,,2013-06-05 02:02:00,
2013-06-04 21:12:00,52.0,44.0,-100.00,East,99,8.0,15.0,75,0.01,,,0.01,,2013-06-05 02:12:00,
2013-06-04 21:22:00,52.0,44.0,-100.00,East,99,8.0,15.0,75,0.01,,,0.01,,2013-06-05 02:22:00,
2013-06-04 21:52:00,52.0,46.0,-100.00,ENE,73,8.0,13.0,79,0.00,,,0.01,,2013-06-05 02:52:00,
2013-06-04 22:02:00,52.0,46.0,-100.00,ENE,73,8.0,13.0,79,0.00,,,0.01,,2013-06-05 03:02:00,
2013-06-04 22:12:00,52.0,46.0,-100.00,ENE,73,8.0,13.0,79,0.00,,,0.01,,2013-06-05 03:12:00,
2013-06-04 22:22:00,52.0,46.0,-100.00,ENE,73,8.0,13.0,79,0.00,,,0.01,,2013-06-05 03:22:00,
2013-06-04 22:53:00,51.0,48.0,-100.00,SE,124,6.0,11.0,88,0.04,,,0.05,,2013-06-05 03:53:00,
2013-06-04 23:02:00,51.0,48.0,-100.00,SE,124,6.0,11.0,88,0.04,,,0.05,,2013-06-05 04:02:00,
2013-06-04 23:13:00,51.0,48.0,-100.00,SE,124,6.0,11.0,88,0.04,,,0.05,,2013-06-05 04:13:00,
2013-06-04 23:23:00,51.0,48.0,-100.00,SE,124,6.0,11.0,88,0.04,,,0.05,,2013-06-05 04:23:00,
2013-06-04 23:53:00,52.0,49.0,-100.00,North,349,5.0,14.0,89,0.01,,,-99.99,,2013-06-05 04:53:00,